sensor_id;sensor_type;location;lat;lon;timestamp;temperature;humidity
6293;DHT22;3179;54.350;10.102;2023-02-16T00:01:20;6.50;99.90
6293;DHT22;3179;54.350;10.102;2023-02-16T00:03:49;6.50;99.90
6293;DHT22;3179;54.350;10.102;2023-02-16T00:06:17;6.50;99.90
6293;DHT22;3179;54.350;10.102;2023-02-16T00:08:45;6.50;99.90
6293;DHT22;3179;54.350;10.102;2023-02-16T00:11:18;6.50;99.90
6293;DHT22;3179;54.350;10.102;2023-02-16T00:14:18;6.50;99.90
6293;DHT22;3179;54.350;10.102;2023-02-16T00:16:47;6.40;99.90
6293;DHT22;3179;54.350;10.102;2023-02-16T00:19:20;6.50;99.90
6293;DHT22;3179;54.350;10.102;2023-02-16T00:21:50;6.40;99.90
6293;DHT22;3179;54.350;10.102;2023-02-16T00:24:18;6.40;99.90
6293;DHT22;3179;54.350;10.102;2023-02-16T00:26:46;6.50;99.90
6293;DHT22;3179;54.350;10.102;2023-02-16T00:29:18;6.40;99.90
6293;DHT22;3179;54.350;10.102;2023-02-16T00:31:45;6.40;99.90
6293;DHT22;3179;54.350;10.102;2023-02-16T00:34:24;6.40;99.90
6293;DHT22;3179;54.350;10.102;2023-02-16T00:36:54;6.40;99.90
6293;DHT22;3179;54.350;10.102;2023-02-16T00:39:21;6.40;99.90
6293;DHT22;3179;54.350;10.102;2023-02-16T00:41:49;6.40;99.90
6293;DHT22;3179;54.350;10.102;2023-02-16T00:44:19;6.40;99.90
6293;DHT22;3179;54.350;10.102;2023-02-16T00:46:47;6.50;99.90
6293;DHT22;3179;54.350;10.102;2023-02-16T00:49:15;6.50;99.90
6293;DHT22;3179;54.350;10.102;2023-02-16T00:51:42;6.50;99.90
6293;DHT22;3179;54.350;10.102;2023-02-16T00:54:11;6.50;99.90
6293;DHT22;3179;54.350;10.102;2023-02-16T00:56:38;6.50;99.90
6293;DHT22;3179;54.350;10.102;2023-02-16T00:59:11;6.50;99.90
6293;DHT22;3179;54.350;10.102;2023-02-16T01:01:39;6.50;99.90
6293;DHT22;3179;54.350;10.102;2023-02-16T01:04:07;6.50;99.90
6293;DHT22;3179;54.350;10.102;2023-02-16T01:06:36;6.50;99.90
6293;DHT22;3179;54.350;10.102;2023-02-16T01:09:21;6.50;99.90
6293;DHT22;3179;54.350;10.102;2023-02-16T01:12:11;6.50;99.90
6293;DHT22;3179;54.350;10.102;2023-02-16T01:14:39;6.50;99.90
6293;DHT22;3179;54.350;10.102;2023-02-16T01:17:06;6.50;99.90
6293;DHT22;3179;54.350;10.102;2023-02-16T01:19:32;6.50;99.90
6293;DHT22;3179;54.350;10.102;2023-02-16T01:21:59;6.50;99.90
6293;DHT22;3179;54.350;10.102;2023-02-16T01:24:28;6.40;99.90
6293;DHT22;3179;54.350;10.102;2023-02-16T01:26:54;6.40;99.90
6293;DHT22;3179;54.350;10.102;2023-02-16T01:29:21;6.40;99.90
6293;DHT22;3179;54.350;10.102;2023-02-16T01:31:48;6.40;99.90
6293;DHT22;3179;54.350;10.102;2023-02-16T01:34:15;6.40;99.90
6293;DHT22;3179;54.350;10.102;2023-02-16T01:36:43;6.40;99.90
6293;DHT22;3179;54.350;10.102;2023-02-16T01:39:11;6.40;99.90
6293;DHT22;3179;54.350;10.102;2023-02-16T01:42:01;6.40;99.90
6293;DHT22;3179;54.350;10.102;2023-02-16T01:44:31;6.40;99.90
6293;DHT22;3179;54.350;10.102;2023-02-16T01:47:03;6.40;99.90
6293;DHT22;3179;54.350;10.102;2023-02-16T01:49:31;6.40;99.90
6293;DHT22;3179;54.350;10.102;2023-02-16T01:52:03;6.40;99.90
6293;DHT22;3179;54.350;10.102;2023-02-16T01:54:37;6.40;99.90
6293;DHT22;3179;54.350;10.102;2023-02-16T01:57:17;6.40;99.90
6293;DHT22;3179;54.350;10.102;2023-02-16T02:00:10;6.40;99.90
6293;DHT22;3179;54.350;10.102;2023-02-16T02:02:40;6.40;99.90
6293;DHT22;3179;54.350;10.102;2023-02-16T02:05:17;6.40;99.90
6293;DHT22;3179;54.350;10.102;2023-02-16T02:08:15;6.40;99.90
6293;DHT22;3179;54.350;10.102;2023-02-16T02:10:49;6.40;99.90
6293;DHT22;3179;54.350;10.102;2023-02-16T02:13:23;6.40;99.90
6293;DHT22;3179;54.350;10.102;2023-02-16T02:15:52;6.40;99.90
6293;DHT22;3179;54.350;10.102;2023-02-16T02:18:19;6.30;99.90
6293;DHT22;3179;54.350;10.102;2023-02-16T02:21:03;6.30;99.90
6293;DHT22;3179;54.350;10.102;2023-02-16T02:24:02;6.30;99.90
6293;DHT22;3179;54.350;10.102;2023-02-16T02:26:56;6.40;99.90
6293;DHT22;3179;54.350;10.102;2023-02-16T02:29:46;6.30;99.90
6293;DHT22;3179;54.350;10.102;2023-02-16T02:32:21;6.30;99.90
6293;DHT22;3179;54.350;10.102;2023-02-16T02:35:04;6.30;99.90
6293;DHT22;3179;54.350;10.102;2023-02-16T02:37:40;6.30;99.90
6293;DHT22;3179;54.350;10.102;2023-02-16T02:40:16;6.30;99.90
6293;DHT22;3179;54.350;10.102;2023-02-16T02:42:52;6.30;99.90
6293;DHT22;3179;54.350;10.102;2023-02-16T02:45:25;6.30;99.90
6293;DHT22;3179;54.350;10.102;2023-02-16T02:47:53;6.30;99.90
6293;DHT22;3179;54.350;10.102;2023-02-16T02:50:33;6.30;99.90
6293;DHT22;3179;54.350;10.102;2023-02-16T02:53:05;6.30;99.90
6293;DHT22;3179;54.350;10.102;2023-02-16T02:55:35;6.30;99.90
6293;DHT22;3179;54.350;10.102;2023-02-16T02:58:24;6.30;99.90
6293;DHT22;3179;54.350;10.102;2023-02-16T03:01:11;6.30;99.90
6293;DHT22;3179;54.350;10.102;2023-02-16T03:03:42;6.30;99.90
6293;DHT22;3179;54.350;10.102;2023-02-16T03:06:14;6.30;99.90
6293;DHT22;3179;54.350;10.102;2023-02-16T03:08:45;6.30;99.90
6293;DHT22;3179;54.350;10.102;2023-02-16T03:11:17;6.30;99.90
6293;DHT22;3179;54.350;10.102;2023-02-16T03:14:26;6.30;99.90
6293;DHT22;3179;54.350;10.102;2023-02-16T03:16:56;6.30;99.90
6293;DHT22;3179;54.350;10.102;2023-02-16T03:19:42;6.30;99.90
6293;DHT22;3179;54.350;10.102;2023-02-16T03:22:27;6.30;99.90
6293;DHT22;3179;54.350;10.102;2023-02-16T03:25:12;6.30;99.90
6293;DHT22;3179;54.350;10.102;2023-02-16T03:27:57;6.30;99.90
6293;DHT22;3179;54.350;10.102;2023-02-16T03:30:45;6.30;99.90
6293;DHT22;3179;54.350;10.102;2023-02-16T03:33:13;6.30;99.90
6293;DHT22;3179;54.350;10.102;2023-02-16T03:35:40;6.30;99.90
6293;DHT22;3179;54.350;10.102;2023-02-16T03:38:07;6.30;99.90
6293;DHT22;3179;54.350;10.102;2023-02-16T03:40:35;6.30;99.90
6293;DHT22;3179;54.350;10.102;2023-02-16T03:43:06;6.30;99.90
6293;DHT22;3179;54.350;10.102;2023-02-16T03:45:36;6.30;99.90
6293;DHT22;3179;54.350;10.102;2023-02-16T03:48:05;6.30;99.90
6293;DHT22;3179;54.350;10.102;2023-02-16T03:50:32;6.30;99.90
6293;DHT22;3179;54.350;10.102;2023-02-16T03:52:59;6.30;99.90
6293;DHT22;3179;54.350;10.102;2023-02-16T03:55:32;6.30;99.90
6293;DHT22;3179;54.350;10.102;2023-02-16T03:57:59;6.20;99.90
6293;DHT22;3179;54.350;10.102;2023-02-16T04:00:26;6.30;99.90
6293;DHT22;3179;54.350;10.102;2023-02-16T04:02:53;6.20;99.90
6293;DHT22;3179;54.350;10.102;2023-02-16T04:05:21;6.20;99.90
6293;DHT22;3179;54.350;10.102;2023-02-16T04:07:47;6.20;99.90
6293;DHT22;3179;54.350;10.102;2023-02-16T04:10:15;6.20;99.90
6293;DHT22;3179;54.350;10.102;2023-02-16T04:12:41;6.20;99.90
6293;DHT22;3179;54.350;10.102;2023-02-16T04:15:09;6.20;99.90
6293;DHT22;3179;54.350;10.102;2023-02-16T04:17:36;6.20;99.90
6293;DHT22;3179;54.350;10.102;2023-02-16T04:20:04;6.20;99.90
6293;DHT22;3179;54.350;10.102;2023-02-16T04:22:32;6.20;99.90
6293;DHT22;3179;54.350;10.102;2023-02-16T04:24:59;6.20;99.90
6293;DHT22;3179;54.350;10.102;2023-02-16T04:27:26;6.20;99.90
6293;DHT22;3179;54.350;10.102;2023-02-16T04:29:53;6.20;99.90
6293;DHT22;3179;54.350;10.102;2023-02-16T04:32:20;6.20;99.90
6293;DHT22;3179;54.350;10.102;2023-02-16T04:34:46;6.20;99.90
6293;DHT22;3179;54.350;10.102;2023-02-16T04:37:13;6.20;99.90
6293;DHT22;3179;54.350;10.102;2023-02-16T04:39:41;6.20;99.90
6293;DHT22;3179;54.350;10.102;2023-02-16T04:42:08;6.20;99.90
6293;DHT22;3179;54.350;10.102;2023-02-16T04:44:35;6.20;99.90
6293;DHT22;3179;54.350;10.102;2023-02-16T04:47:02;6.20;99.90
6293;DHT22;3179;54.350;10.102;2023-02-16T04:49:29;6.20;99.90
6293;DHT22;3179;54.350;10.102;2023-02-16T04:51:55;6.20;99.90
6293;DHT22;3179;54.350;10.102;2023-02-16T04:54:22;6.20;99.90
6293;DHT22;3179;54.350;10.102;2023-02-16T04:56:50;6.10;99.90
6293;DHT22;3179;54.350;10.102;2023-02-16T04:59:17;6.10;99.90
6293;DHT22;3179;54.350;10.102;2023-02-16T05:01:44;6.10;99.90
6293;DHT22;3179;54.350;10.102;2023-02-16T05:04:10;6.10;99.90
6293;DHT22;3179;54.350;10.102;2023-02-16T05:06:37;6.10;99.90
6293;DHT22;3179;54.350;10.102;2023-02-16T05:09:05;6.10;99.90
6293;DHT22;3179;54.350;10.102;2023-02-16T05:11:32;6.10;99.90
6293;DHT22;3179;54.350;10.102;2023-02-16T05:14:19;6.10;99.90
6293;DHT22;3179;54.350;10.102;2023-02-16T05:17:04;6.10;99.90
6293;DHT22;3179;54.350;10.102;2023-02-16T05:19:30;6.10;99.90
6293;DHT22;3179;54.350;10.102;2023-02-16T05:21:57;6.10;99.90
6293;DHT22;3179;54.350;10.102;2023-02-16T05:24:24;6.10;99.90
6293;DHT22;3179;54.350;10.102;2023-02-16T05:26:51;6.10;99.90
6293;DHT22;3179;54.350;10.102;2023-02-16T05:29:19;6.10;99.90
6293;DHT22;3179;54.350;10.102;2023-02-16T05:31:46;6.10;99.90
6293;DHT22;3179;54.350;10.102;2023-02-16T05:34:13;6.10;99.90
6293;DHT22;3179;54.350;10.102;2023-02-16T05:36:39;6.10;99.90
6293;DHT22;3179;54.350;10.102;2023-02-16T05:39:06;6.10;99.90
6293;DHT22;3179;54.350;10.102;2023-02-16T05:41:33;6.10;99.90
6293;DHT22;3179;54.350;10.102;2023-02-16T05:44:01;6.10;99.90
6293;DHT22;3179;54.350;10.102;2023-02-16T05:46:32;6.10;99.90
6293;DHT22;3179;54.350;10.102;2023-02-16T05:49:00;6.10;99.90
6293;DHT22;3179;54.350;10.102;2023-02-16T05:51:27;6.10;99.90
6293;DHT22;3179;54.350;10.102;2023-02-16T05:53:54;6.10;99.90
6293;DHT22;3179;54.350;10.102;2023-02-16T05:56:21;6.10;99.90
6293;DHT22;3179;54.350;10.102;2023-02-16T05:58:48;6.10;99.90
6293;DHT22;3179;54.350;10.102;2023-02-16T06:01:15;6.10;99.90
6293;DHT22;3179;54.350;10.102;2023-02-16T06:03:44;6.10;99.90
6293;DHT22;3179;54.350;10.102;2023-02-16T06:06:10;6.20;99.90
6293;DHT22;3179;54.350;10.102;2023-02-16T06:08:39;6.10;99.90
6293;DHT22;3179;54.350;10.102;2023-02-16T06:11:06;6.10;99.90
6293;DHT22;3179;54.350;10.102;2023-02-16T06:13:52;6.10;99.90
6293;DHT22;3179;54.350;10.102;2023-02-16T06:16:23;6.10;99.90
6293;DHT22;3179;54.350;10.102;2023-02-16T06:18:51;6.10;99.90
6293;DHT22;3179;54.350;10.102;2023-02-16T06:21:18;6.20;99.90
6293;DHT22;3179;54.350;10.102;2023-02-16T06:23:45;6.20;99.90
6293;DHT22;3179;54.350;10.102;2023-02-16T06:26:12;6.20;99.90
6293;DHT22;3179;54.350;10.102;2023-02-16T06:28:39;6.10;99.90
6293;DHT22;3179;54.350;10.102;2023-02-16T06:31:05;6.10;99.90
6293;DHT22;3179;54.350;10.102;2023-02-16T06:33:32;6.10;99.90
6293;DHT22;3179;54.350;10.102;2023-02-16T06:36:00;6.10;99.90
6293;DHT22;3179;54.350;10.102;2023-02-16T06:38:27;6.10;99.90
6293;DHT22;3179;54.350;10.102;2023-02-16T06:40:54;6.20;99.90
6293;DHT22;3179;54.350;10.102;2023-02-16T06:43:21;6.20;99.90
6293;DHT22;3179;54.350;10.102;2023-02-16T06:45:48;6.20;99.90
6293;DHT22;3179;54.350;10.102;2023-02-16T06:48:14;6.20;99.90
6293;DHT22;3179;54.350;10.102;2023-02-16T06:50:41;6.20;99.90
6293;DHT22;3179;54.350;10.102;2023-02-16T06:53:09;6.20;99.90
6293;DHT22;3179;54.350;10.102;2023-02-16T06:55:36;6.20;99.90
6293;DHT22;3179;54.350;10.102;2023-02-16T06:58:03;6.20;99.90
6293;DHT22;3179;54.350;10.102;2023-02-16T07:00:30;6.20;99.90
6293;DHT22;3179;54.350;10.102;2023-02-16T07:02:57;6.20;99.90
6293;DHT22;3179;54.350;10.102;2023-02-16T07:05:24;6.20;99.90
6293;DHT22;3179;54.350;10.102;2023-02-16T07:07:51;6.30;99.90
6293;DHT22;3179;54.350;10.102;2023-02-16T07:10:19;6.30;99.90
6293;DHT22;3179;54.350;10.102;2023-02-16T07:12:47;6.30;99.90
6293;DHT22;3179;54.350;10.102;2023-02-16T07:15:13;6.30;99.90
6293;DHT22;3179;54.350;10.102;2023-02-16T07:17:40;6.30;99.90
6293;DHT22;3179;54.350;10.102;2023-02-16T07:20:07;6.30;99.90
6293;DHT22;3179;54.350;10.102;2023-02-16T07:22:36;6.30;99.90
6293;DHT22;3179;54.350;10.102;2023-02-16T07:25:03;6.30;99.90
6293;DHT22;3179;54.350;10.102;2023-02-16T07:27:31;6.30;99.90
6293;DHT22;3179;54.350;10.102;2023-02-16T07:29:58;6.30;99.90
6293;DHT22;3179;54.350;10.102;2023-02-16T07:32:25;6.40;99.90
6293;DHT22;3179;54.350;10.102;2023-02-16T07:34:52;6.40;99.90
6293;DHT22;3179;54.350;10.102;2023-02-16T07:37:18;6.40;99.90
6293;DHT22;3179;54.350;10.102;2023-02-16T07:39:45;6.40;99.90
6293;DHT22;3179;54.350;10.102;2023-02-16T07:42:12;6.40;99.90
6293;DHT22;3179;54.350;10.102;2023-02-16T07:44:41;6.40;99.90
6293;DHT22;3179;54.350;10.102;2023-02-16T07:47:08;6.40;99.90
6293;DHT22;3179;54.350;10.102;2023-02-16T07:49:35;6.40;99.90
6293;DHT22;3179;54.350;10.102;2023-02-16T07:52:02;6.40;99.90
6293;DHT22;3179;54.350;10.102;2023-02-16T07:54:30;6.40;99.90
6293;DHT22;3179;54.350;10.102;2023-02-16T07:56:57;6.40;99.90
6293;DHT22;3179;54.350;10.102;2023-02-16T07:59:24;6.40;99.90
6293;DHT22;3179;54.350;10.102;2023-02-16T08:01:52;6.40;99.90
6293;DHT22;3179;54.350;10.102;2023-02-16T08:04:19;6.50;99.90
6293;DHT22;3179;54.350;10.102;2023-02-16T08:06:45;6.50;99.90
6293;DHT22;3179;54.350;10.102;2023-02-16T08:09:13;6.50;99.90
6293;DHT22;3179;54.350;10.102;2023-02-16T08:11:40;6.50;99.90
6293;DHT22;3179;54.350;10.102;2023-02-16T08:14:07;6.50;99.90
6293;DHT22;3179;54.350;10.102;2023-02-16T08:16:34;6.50;99.90
6293;DHT22;3179;54.350;10.102;2023-02-16T08:19:02;6.60;99.90
6293;DHT22;3179;54.350;10.102;2023-02-16T08:21:31;6.60;99.90
6293;DHT22;3179;54.350;10.102;2023-02-16T08:23:59;6.60;99.90
6293;DHT22;3179;54.350;10.102;2023-02-16T08:26:33;6.60;99.90
6293;DHT22;3179;54.350;10.102;2023-02-16T08:29:06;6.60;99.90
6293;DHT22;3179;54.350;10.102;2023-02-16T08:31:35;6.60;99.90
6293;DHT22;3179;54.350;10.102;2023-02-16T08:34:04;6.60;99.90
6293;DHT22;3179;54.350;10.102;2023-02-16T08:36:33;6.60;99.90
6293;DHT22;3179;54.350;10.102;2023-02-16T08:39:02;6.60;99.90
6293;DHT22;3179;54.350;10.102;2023-02-16T08:41:31;6.60;99.90
6293;DHT22;3179;54.350;10.102;2023-02-16T08:43:59;6.70;99.90
6293;DHT22;3179;54.350;10.102;2023-02-16T08:46:27;6.70;99.90
6293;DHT22;3179;54.350;10.102;2023-02-16T08:48:54;6.70;99.90
6293;DHT22;3179;54.350;10.102;2023-02-16T08:51:25;6.70;99.90
6293;DHT22;3179;54.350;10.102;2023-02-16T08:53:52;6.70;99.90
6293;DHT22;3179;54.350;10.102;2023-02-16T08:56:19;6.70;99.90
6293;DHT22;3179;54.350;10.102;2023-02-16T08:58:46;6.70;99.90
6293;DHT22;3179;54.350;10.102;2023-02-16T09:01:13;6.70;99.90
6293;DHT22;3179;54.350;10.102;2023-02-16T09:03:42;6.70;99.90
6293;DHT22;3179;54.350;10.102;2023-02-16T09:06:12;6.70;99.90
6293;DHT22;3179;54.350;10.102;2023-02-16T09:08:40;6.70;99.90
6293;DHT22;3179;54.350;10.102;2023-02-16T09:11:10;6.80;99.90
6293;DHT22;3179;54.350;10.102;2023-02-16T09:13:38;6.80;99.90
6293;DHT22;3179;54.350;10.102;2023-02-16T09:16:07;6.80;99.90
6293;DHT22;3179;54.350;10.102;2023-02-16T09:18:35;6.80;99.90
6293;DHT22;3179;54.350;10.102;2023-02-16T09:21:03;6.80;99.90
6293;DHT22;3179;54.350;10.102;2023-02-16T09:23:32;6.90;99.90
6293;DHT22;3179;54.350;10.102;2023-02-16T09:26:01;6.90;99.90
6293;DHT22;3179;54.350;10.102;2023-02-16T09:28:31;7.00;99.90
6293;DHT22;3179;54.350;10.102;2023-02-16T09:30:58;7.00;99.90
6293;DHT22;3179;54.350;10.102;2023-02-16T09:33:25;7.10;99.90
6293;DHT22;3179;54.350;10.102;2023-02-16T09:35:52;7.10;99.90
6293;DHT22;3179;54.350;10.102;2023-02-16T09:38:19;7.10;99.90
6293;DHT22;3179;54.350;10.102;2023-02-16T09:40:47;7.20;99.90
6293;DHT22;3179;54.350;10.102;2023-02-16T09:43:24;7.20;99.90
6293;DHT22;3179;54.350;10.102;2023-02-16T09:45:55;7.30;99.90
6293;DHT22;3179;54.350;10.102;2023-02-16T09:48:29;7.30;99.90
6293;DHT22;3179;54.350;10.102;2023-02-16T09:50:59;7.30;99.90
6293;DHT22;3179;54.350;10.102;2023-02-16T09:53:33;7.30;99.90
6293;DHT22;3179;54.350;10.102;2023-02-16T09:56:07;7.30;99.90
6293;DHT22;3179;54.350;10.102;2023-02-16T09:58:45;7.40;99.90
6293;DHT22;3179;54.350;10.102;2023-02-16T10:01:20;7.40;99.90
6293;DHT22;3179;54.350;10.102;2023-02-16T10:03:56;7.40;99.90
6293;DHT22;3179;54.350;10.102;2023-02-16T10:06:40;7.40;99.90
6293;DHT22;3179;54.350;10.102;2023-02-16T10:09:10;7.40;99.90
6293;DHT22;3179;54.350;10.102;2023-02-16T10:11:41;7.40;99.90
6293;DHT22;3179;54.350;10.102;2023-02-16T10:14:17;7.50;99.90
6293;DHT22;3179;54.350;10.102;2023-02-16T10:16:52;7.50;99.90
6293;DHT22;3179;54.350;10.102;2023-02-16T10:19:22;7.50;99.90
6293;DHT22;3179;54.350;10.102;2023-02-16T10:21:55;7.50;99.90
6293;DHT22;3179;54.350;10.102;2023-02-16T10:24:25;7.60;99.90
6293;DHT22;3179;54.350;10.102;2023-02-16T10:26:57;7.60;99.90
6293;DHT22;3179;54.350;10.102;2023-02-16T10:29:28;7.60;99.90
6293;DHT22;3179;54.350;10.102;2023-02-16T10:32:02;7.60;99.90
6293;DHT22;3179;54.350;10.102;2023-02-16T10:34:46;7.60;99.90
6293;DHT22;3179;54.350;10.102;2023-02-16T10:37:28;7.60;99.90
6293;DHT22;3179;54.350;10.102;2023-02-16T10:40:19;7.60;99.90
6293;DHT22;3179;54.350;10.102;2023-02-16T10:42:50;7.60;99.90
6293;DHT22;3179;54.350;10.102;2023-02-16T10:45:28;7.60;99.90
6293;DHT22;3179;54.350;10.102;2023-02-16T10:47:57;7.60;99.90
6293;DHT22;3179;54.350;10.102;2023-02-16T10:50:27;7.70;99.90
6293;DHT22;3179;54.350;10.102;2023-02-16T10:52:58;7.70;99.90
6293;DHT22;3179;54.350;10.102;2023-02-16T10:55:26;7.70;99.90
6293;DHT22;3179;54.350;10.102;2023-02-16T10:57:56;7.70;99.90
6293;DHT22;3179;54.350;10.102;2023-02-16T11:00:32;7.70;99.90
6293;DHT22;3179;54.350;10.102;2023-02-16T11:03:09;7.70;99.90
6293;DHT22;3179;54.350;10.102;2023-02-16T11:05:38;7.70;99.90
6293;DHT22;3179;54.350;10.102;2023-02-16T11:08:08;7.80;99.90
6293;DHT22;3179;54.350;10.102;2023-02-16T11:10:40;7.80;99.90
6293;DHT22;3179;54.350;10.102;2023-02-16T11:13:24;7.80;99.90
6293;DHT22;3179;54.350;10.102;2023-02-16T11:15:55;7.80;99.90
6293;DHT22;3179;54.350;10.102;2023-02-16T11:18:31;7.80;99.90
6293;DHT22;3179;54.350;10.102;2023-02-16T11:20:59;7.80;99.90
6293;DHT22;3179;54.350;10.102;2023-02-16T11:23:28;7.80;99.90
6293;DHT22;3179;54.350;10.102;2023-02-16T11:25:58;7.80;99.90
6293;DHT22;3179;54.350;10.102;2023-02-16T11:28:31;7.80;99.90
6293;DHT22;3179;54.350;10.102;2023-02-16T11:31:13;7.80;99.90
6293;DHT22;3179;54.350;10.102;2023-02-16T11:33:42;7.90;99.90
6293;DHT22;3179;54.350;10.102;2023-02-16T11:36:26;7.90;99.90
6293;DHT22;3179;54.350;10.102;2023-02-16T11:38:59;7.90;99.90
6293;DHT22;3179;54.350;10.102;2023-02-16T11:41:27;7.90;99.90
6293;DHT22;3179;54.350;10.102;2023-02-16T11:43:55;7.90;99.90
6293;DHT22;3179;54.350;10.102;2023-02-16T11:46:23;7.90;99.90
6293;DHT22;3179;54.350;10.102;2023-02-16T11:48:50;7.90;99.90
6293;DHT22;3179;54.350;10.102;2023-02-16T11:51:30;8.00;99.90
6293;DHT22;3179;54.350;10.102;2023-02-16T11:54:03;8.00;99.90
6293;DHT22;3179;54.350;10.102;2023-02-16T11:56:32;8.00;99.90
6293;DHT22;3179;54.350;10.102;2023-02-16T11:59:12;8.00;99.90
6293;DHT22;3179;54.350;10.102;2023-02-16T12:02:00;8.00;99.90
6293;DHT22;3179;54.350;10.102;2023-02-16T12:04:46;8.00;99.90
6293;DHT22;3179;54.350;10.102;2023-02-16T12:07:22;7.90;99.90
6293;DHT22;3179;54.350;10.102;2023-02-16T12:09:57;7.90;99.90
6293;DHT22;3179;54.350;10.102;2023-02-16T12:12:32;7.90;99.90
6293;DHT22;3179;54.350;10.102;2023-02-16T12:15:08;8.00;99.90
6293;DHT22;3179;54.350;10.102;2023-02-16T12:20:35;7.90;99.90
6293;DHT22;3179;54.350;10.102;2023-02-16T12:23:13;8.00;99.90
6293;DHT22;3179;54.350;10.102;2023-02-16T12:25:50;8.00;99.90
6293;DHT22;3179;54.350;10.102;2023-02-16T12:28:26;8.00;99.90
6293;DHT22;3179;54.350;10.102;2023-02-16T12:31:03;8.00;99.90
6293;DHT22;3179;54.350;10.102;2023-02-16T12:33:39;8.00;99.90
6293;DHT22;3179;54.350;10.102;2023-02-16T12:36:27;8.00;99.90
6293;DHT22;3179;54.350;10.102;2023-02-16T12:39:04;8.00;99.90
6293;DHT22;3179;54.350;10.102;2023-02-16T12:41:43;8.10;99.90
6293;DHT22;3179;54.350;10.102;2023-02-16T12:44:14;8.10;99.90
6293;DHT22;3179;54.350;10.102;2023-02-16T12:46:43;8.10;99.90
6293;DHT22;3179;54.350;10.102;2023-02-16T12:49:15;8.10;99.90
6293;DHT22;3179;54.350;10.102;2023-02-16T12:51:47;8.10;99.90
6293;DHT22;3179;54.350;10.102;2023-02-16T12:54:18;8.10;99.90
6293;DHT22;3179;54.350;10.102;2023-02-16T12:56:49;8.10;99.90
6293;DHT22;3179;54.350;10.102;2023-02-16T12:59:22;8.10;99.90
6293;DHT22;3179;54.350;10.102;2023-02-16T13:01:51;8.10;99.90
6293;DHT22;3179;54.350;10.102;2023-02-16T13:04:26;8.10;99.90
6293;DHT22;3179;54.350;10.102;2023-02-16T13:07:06;8.20;99.90
6293;DHT22;3179;54.350;10.102;2023-02-16T13:09:47;8.20;99.90
6293;DHT22;3179;54.350;10.102;2023-02-16T13:12:23;8.20;99.90
6293;DHT22;3179;54.350;10.102;2023-02-16T13:14:59;8.20;99.90
6293;DHT22;3179;54.350;10.102;2023-02-16T13:17:32;8.20;99.90
6293;DHT22;3179;54.350;10.102;2023-02-16T13:20:01;8.30;99.90
6293;DHT22;3179;54.350;10.102;2023-02-16T13:22:44;8.40;99.90
6293;DHT22;3179;54.350;10.102;2023-02-16T13:25:39;8.40;99.90
6293;DHT22;3179;54.350;10.102;2023-02-16T13:28:20;8.50;99.90
6293;DHT22;3179;54.350;10.102;2023-02-16T13:31:05;8.50;99.90
6293;DHT22;3179;54.350;10.102;2023-02-16T13:33:54;8.50;99.90
6293;DHT22;3179;54.350;10.102;2023-02-16T13:36:58;8.60;99.90
6293;DHT22;3179;54.350;10.102;2023-02-16T13:39:45;8.60;99.90
6293;DHT22;3179;54.350;10.102;2023-02-16T13:45:18;8.50;99.90
6293;DHT22;3179;54.350;10.102;2023-02-16T13:47:45;8.50;99.90
6293;DHT22;3179;54.350;10.102;2023-02-16T13:50:29;8.50;99.90
6293;DHT22;3179;54.350;10.102;2023-02-16T13:53:10;8.50;99.90
6293;DHT22;3179;54.350;10.102;2023-02-16T13:55:41;8.50;99.90
6293;DHT22;3179;54.350;10.102;2023-02-16T13:58:28;8.40;99.90
6293;DHT22;3179;54.350;10.102;2023-02-16T14:00:55;8.50;99.90
6293;DHT22;3179;54.350;10.102;2023-02-16T14:03:36;8.40;99.90
6293;DHT22;3179;54.350;10.102;2023-02-16T14:06:27;8.40;99.90
6293;DHT22;3179;54.350;10.102;2023-02-16T14:12:19;8.40;99.90
6293;DHT22;3179;54.350;10.102;2023-02-16T14:14:56;8.40;99.90
6293;DHT22;3179;54.350;10.102;2023-02-16T14:17:29;8.40;99.90
6293;DHT22;3179;54.350;10.102;2023-02-16T14:19:59;8.40;99.90
6293;DHT22;3179;54.350;10.102;2023-02-16T14:22:48;8.40;99.90
6293;DHT22;3179;54.350;10.102;2023-02-16T14:25:38;8.40;99.90
6293;DHT22;3179;54.350;10.102;2023-02-16T14:28:49;8.40;99.90
6293;DHT22;3179;54.350;10.102;2023-02-16T14:31:20;8.40;99.90
6293;DHT22;3179;54.350;10.102;2023-02-16T14:33:54;8.40;99.90
6293;DHT22;3179;54.350;10.102;2023-02-16T14:36:25;8.40;99.90
6293;DHT22;3179;54.350;10.102;2023-02-16T14:38:54;8.40;99.90
6293;DHT22;3179;54.350;10.102;2023-02-16T14:41:26;8.40;99.90
6293;DHT22;3179;54.350;10.102;2023-02-16T14:44:19;8.40;99.90
6293;DHT22;3179;54.350;10.102;2023-02-16T14:46:55;8.40;99.90
6293;DHT22;3179;54.350;10.102;2023-02-16T14:49:54;8.40;99.90
6293;DHT22;3179;54.350;10.102;2023-02-16T14:55:41;8.40;99.90
6293;DHT22;3179;54.350;10.102;2023-02-16T14:58:26;8.40;99.90
6293;DHT22;3179;54.350;10.102;2023-02-16T15:01:02;8.40;99.90
6293;DHT22;3179;54.350;10.102;2023-02-16T15:03:42;8.40;99.90
6293;DHT22;3179;54.350;10.102;2023-02-16T15:06:21;8.40;99.90
6293;DHT22;3179;54.350;10.102;2023-02-16T15:08:52;8.40;99.90
6293;DHT22;3179;54.350;10.102;2023-02-16T15:11:34;8.40;99.90
6293;DHT22;3179;54.350;10.102;2023-02-16T15:14:21;8.40;99.90
6293;DHT22;3179;54.350;10.102;2023-02-16T15:16:51;8.40;99.90
6293;DHT22;3179;54.350;10.102;2023-02-16T15:19:22;8.50;99.90
6293;DHT22;3179;54.350;10.102;2023-02-16T15:22:06;8.50;99.90
6293;DHT22;3179;54.350;10.102;2023-02-16T15:24:33;8.40;99.90
6293;DHT22;3179;54.350;10.102;2023-02-16T15:27:00;8.40;99.90
6293;DHT22;3179;54.350;10.102;2023-02-16T15:29:28;8.40;99.90
6293;DHT22;3179;54.350;10.102;2023-02-16T15:31:58;8.50;99.90
6293;DHT22;3179;54.350;10.102;2023-02-16T15:34:27;8.50;99.90
6293;DHT22;3179;54.350;10.102;2023-02-16T15:36:58;8.50;99.90
6293;DHT22;3179;54.350;10.102;2023-02-16T15:39:27;8.50;99.90
6293;DHT22;3179;54.350;10.102;2023-02-16T15:42:14;8.50;99.90
6293;DHT22;3179;54.350;10.102;2023-02-16T15:44:42;8.50;99.90
6293;DHT22;3179;54.350;10.102;2023-02-16T15:47:14;8.50;99.90
6293;DHT22;3179;54.350;10.102;2023-02-16T15:49:42;8.50;99.90
6293;DHT22;3179;54.350;10.102;2023-02-16T15:52:12;8.50;99.90
6293;DHT22;3179;54.350;10.102;2023-02-16T15:54:41;8.50;99.90
6293;DHT22;3179;54.350;10.102;2023-02-16T15:57:13;8.50;99.90
6293;DHT22;3179;54.350;10.102;2023-02-16T15:59:46;8.50;99.90
6293;DHT22;3179;54.350;10.102;2023-02-16T16:02:17;8.50;99.90
6293;DHT22;3179;54.350;10.102;2023-02-16T16:04:47;8.50;99.90
6293;DHT22;3179;54.350;10.102;2023-02-16T16:07:26;8.50;99.90
6293;DHT22;3179;54.350;10.102;2023-02-16T16:09:55;8.50;99.90
6293;DHT22;3179;54.350;10.102;2023-02-16T16:12:23;8.50;99.90
6293;DHT22;3179;54.350;10.102;2023-02-16T16:14:53;8.50;99.90
6293;DHT22;3179;54.350;10.102;2023-02-16T16:17:24;8.50;99.90
6293;DHT22;3179;54.350;10.102;2023-02-16T16:19:52;8.50;99.90
6293;DHT22;3179;54.350;10.102;2023-02-16T16:22:32;8.50;99.90
6293;DHT22;3179;54.350;10.102;2023-02-16T16:25:00;8.50;99.90
6293;DHT22;3179;54.350;10.102;2023-02-16T16:27:28;8.50;99.90
6293;DHT22;3179;54.350;10.102;2023-02-16T16:30:10;8.50;99.90
6293;DHT22;3179;54.350;10.102;2023-02-16T16:32:38;8.50;99.90
6293;DHT22;3179;54.350;10.102;2023-02-16T16:35:19;8.50;99.90
6293;DHT22;3179;54.350;10.102;2023-02-16T16:37:48;8.50;99.90
6293;DHT22;3179;54.350;10.102;2023-02-16T16:40:21;8.50;99.90
6293;DHT22;3179;54.350;10.102;2023-02-16T16:43:15;8.50;99.90
6293;DHT22;3179;54.350;10.102;2023-02-16T16:45:44;8.50;99.90
6293;DHT22;3179;54.350;10.102;2023-02-16T16:48:17;8.50;99.90